Time;durP1;ratioP1;P1;durP2;ratioP2;P2;SDS_P1;SDS_P2;PMS_P1;PMS_P2;Temp;Humidity;BMP_temperature;BMP_pressure;BME280_temperature;BME280_humidity;BME280_pressure;Samples;Min_cycle;Max_cycle;Signal;HPM_P1;HPM_P2
2023/10/28 00:00:47;;;;;;;5.05;4.20;;;9.80;99.90;;;;;;5032046;28;20073;-64
2023/10/28 00:03:14;;;;;;;4.22;3.83;;;9.80;99.90;;;;;;5019933;28;20046;-64
2023/10/28 00:05:40;;;;;;;5.00;4.15;;;9.80;99.90;;;;;;5026565;28;20041;-64
2023/10/28 00:08:07;;;;;;;4.72;3.97;;;9.90;99.90;;;;;;4995980;28;20049;-64
2023/10/28 00:10:35;;;;;;;5.03;4.05;;;9.80;99.90;;;;;;5026755;28;20166;-64
2023/10/28 00:13:08;;;;;;;4.50;4.00;;;9.80;99.90;;;;;;5031901;28;20224;-64
2023/10/28 00:15:35;;;;;;;4.43;4.03;;;9.80;99.90;;;;;;5029255;28;20120;-64
2023/10/28 00:18:03;;;;;;;7.05;4.70;;;9.80;99.90;;;;;;5020686;28;20072;-64
2023/10/28 00:20:29;;;;;;;4.90;4.40;;;9.80;99.90;;;;;;5012168;28;20180;-64
2023/10/28 00:22:56;;;;;;;5.20;4.50;;;9.80;99.90;;;;;;5022268;28;20049;-65
2023/10/28 00:25:22;;;;;;;4.70;4.30;;;9.80;99.90;;;;;;5034082;28;20049;-64
2023/10/28 00:27:48;;;;;;;5.45;4.90;;;9.90;99.90;;;;;;5033196;28;20049;-64
2023/10/28 00:30:15;;;;;;;5.75;4.50;;;9.80;99.90;;;;;;5030299;28;20574;-64
2023/10/28 00:32:41;;;;;;;7.18;4.90;;;9.80;99.90;;;;;;5036462;28;20131;-65
2023/10/28 00:35:11;;;;;;;6.35;5.10;;;9.80;99.90;;;;;;5034686;28;20063;-65
2023/10/28 00:37:38;;;;;;;7.75;5.07;;;9.90;99.90;;;;;;5030745;28;20519;-65
2023/10/28 00:40:07;;;;;;;10.32;4.65;;;9.80;99.90;;;;;;5031905;28;20501;-65
2023/10/28 00:42:36;;;;;;;6.77;5.00;;;9.90;99.90;;;;;;5049434;28;20052;-65
2023/10/28 00:45:03;;;;;;;7.60;5.70;;;9.80;99.90;;;;;;5049672;28;20120;-66
2023/10/28 00:47:30;;;;;;;13.20;5.38;;;9.80;99.90;;;;;;5048586;28;20198;-66
2023/10/28 00:49:57;;;;;;;6.47;5.15;;;9.90;99.90;;;;;;5049929;28;20049;-66
2023/10/28 00:52:24;;;;;;;7.38;4.75;;;9.80;99.90;;;;;;5034671;28;20056;-65
2023/10/28 00:54:51;;;;;;;5.80;5.07;;;9.80;99.90;;;;;;5048624;28;20053;-66
2023/10/28 00:57:17;;;;;;;6.50;5.28;;;9.90;99.90;;;;;;5011251;28;20048;-65
2023/10/28 00:59:43;;;;;;;13.25;4.90;;;9.80;99.90;;;;;;5028514;28;20037;-65
2023/10/28 01:02:12;;;;;;;6.95;4.57;;;9.90;99.90;;;;;;5029822;28;20137;-65
2023/10/28 01:04:39;;;;;;;7.18;5.18;;;9.80;99.90;;;;;;5029321;28;20040;-65
2023/10/28 01:07:05;;;;;;;6.03;4.53;;;9.90;99.90;;;;;;5029759;28;20472;-65
2023/10/28 01:09:31;;;;;;;7.00;5.10;;;9.90;99.90;;;;;;5029150;28;20088;-65
2023/10/28 01:11:57;;;;;;;6.25;4.57;;;9.80;99.90;;;;;;5033360;28;20380;-65
2023/10/28 01:14:23;;;;;;;5.43;4.88;;;9.90;99.90;;;;;;5037444;28;20106;-65
2023/10/28 01:16:51;;;;;;;8.38;4.93;;;9.90;99.90;;;;;;5046317;28;20045;-65
2023/10/28 01:19:17;;;;;;;6.43;4.68;;;9.90;99.90;;;;;;5045179;28;20132;-65
2023/10/28 01:21:44;;;;;;;5.32;4.70;;;9.90;99.90;;;;;;5037278;28;20120;-65
2023/10/28 01:24:09;;;;;;;5.07;4.57;;;9.90;99.90;;;;;;5030158;28;20483;-65
2023/10/28 01:26:36;;;;;;;9.15;5.05;;;9.90;99.90;;;;;;5029014;28;20045;-64
2023/10/28 01:29:03;;;;;;;5.65;4.72;;;9.80;99.90;;;;;;5029994;28;20041;-65
2023/10/28 01:31:28;;;;;;;5.03;4.53;;;9.80;99.90;;;;;;5028377;28;20045;-64
2023/10/28 01:33:54;;;;;;;6.30;5.00;;;9.80;99.90;;;;;;4991676;28;20116;-64
2023/10/28 01:36:20;;;;;;;6.57;4.93;;;9.90;99.90;;;;;;5026854;28;20065;-64
2023/10/28 01:38:46;;;;;;;5.40;4.78;;;9.80;99.90;;;;;;5028944;28;20045;-64
2023/10/28 01:41:13;;;;;;;7.53;5.10;;;9.90;99.90;;;;;;5029865;28;20037;-64
2023/10/28 01:43:44;;;;;;;8.00;4.97;;;9.90;99.90;;;;;;5011444;28;20034;-64
2023/10/28 01:46:11;;;;;;;7.22;5.57;;;9.90;99.90;;;;;;5011436;28;20492;-64
2023/10/28 01:48:36;;;;;;;7.57;4.70;;;9.90;99.90;;;;;;5028264;28;20137;-64
2023/10/28 01:51:02;;;;;;;5.60;5.10;;;9.90;99.90;;;;;;5011255;28;20136;-64
2023/10/28 01:53:28;;;;;;;7.68;5.00;;;9.90;99.90;;;;;;5012204;28;20495;-65
2023/10/28 01:55:54;;;;;;;6.45;5.43;;;9.90;99.90;;;;;;5028580;28;20055;-64
2023/10/28 01:58:20;;;;;;;7.90;4.97;;;9.90;99.90;;;;;;5029225;28;20399;-64
2023/10/28 02:00:45;;;;;;;8.45;6.32;;;9.90;99.90;;;;;;4990860;28;20050;-65
2023/10/28 02:03:11;;;;;;;7.40;5.90;;;9.90;99.90;;;;;;5011027;28;20088;-64
2023/10/28 02:05:38;;;;;;;14.05;6.00;;;9.90;99.90;;;;;;5036484;28;20033;-64
2023/10/28 02:08:04;;;;;;;8.98;5.95;;;9.90;99.90;;;;;;5010737;28;20427;-65
2023/10/28 02:10:30;;;;;;;9.32;5.40;;;9.90;99.90;;;;;;5028830;28;20404;-64
2023/10/28 02:12:55;;;;;;;8.77;6.10;;;9.90;99.90;;;;;;5033973;28;20045;-64
2023/10/28 02:15:21;;;;;;;10.07;5.95;;;9.90;99.90;;;;;;5046072;28;20041;-65
2023/10/28 02:17:48;;;;;;;8.48;5.93;;;9.90;99.90;;;;;;5048246;28;20641;-64
2023/10/28 02:20:13;;;;;;;6.18;5.57;;;9.90;99.90;;;;;;5030974;28;20080;-64
2023/10/28 02:22:40;;;;;;;10.05;7.07;;;9.90;99.90;;;;;;5033961;28;20073;-64
2023/10/28 02:25:08;;;;;;;7.32;6.07;;;9.90;99.90;;;;;;5041060;28;20159;-64
2023/10/28 02:27:34;;;;;;;11.90;6.78;;;10.00;99.90;;;;;;5042578;28;20053;-63
2023/10/28 02:29:59;;;;;;;10.80;6.93;;;9.90;99.90;;;;;;5047926;28;20029;-64
2023/10/28 02:32:25;;;;;;;9.32;7.00;;;9.90;99.90;;;;;;5029572;28;20162;-64
2023/10/28 02:34:51;;;;;;;7.70;6.50;;;10.00;99.90;;;;;;5047046;28;20120;-64
2023/10/28 02:37:16;;;;;;;11.95;7.82;;;9.90;99.90;;;;;;5029773;28;20079;-64
2023/10/28 02:39:42;;;;;;;10.90;7.53;;;9.90;99.90;;;;;;5041494;28;20056;-64
2023/10/28 02:42:08;;;;;;;11.95;7.47;;;10.00;99.90;;;;;;5010795;28;20053;-64
2023/10/28 02:44:33;;;;;;;11.27;8.05;;;10.00;99.90;;;;;;5027549;28;20403;-64
2023/10/28 02:46:59;;;;;;;10.50;7.85;;;9.90;99.90;;;;;;5028890;28;20045;-64
2023/10/28 02:49:25;;;;;;;11.10;7.88;;;9.90;99.90;;;;;;5028339;28;20079;-63
2023/10/28 02:51:51;;;;;;;9.50;7.05;;;10.00;99.90;;;;;;5006536;28;20484;-64
2023/10/28 02:54:17;;;;;;;10.65;8.07;;;9.90;99.90;;;;;;5015529;28;20452;-63
2023/10/28 02:56:43;;;;;;;12.18;8.13;;;9.90;99.90;;;;;;5025525;28;20103;-64
2023/10/28 02:59:10;;;;;;;14.13;8.15;;;10.00;99.90;;;;;;5028056;28;20434;-64
2023/10/28 03:01:39;;;;;;;12.38;7.78;;;9.90;99.90;;;;;;5008210;28;20041;-64
2023/10/28 03:04:06;;;;;;;12.27;7.93;;;10.00;99.90;;;;;;5032865;28;20377;-63
2023/10/28 03:06:32;;;;;;;13.10;7.85;;;10.00;99.90;;;;;;5029116;28;20132;-63
2023/10/28 03:08:58;;;;;;;16.10;8.75;;;10.00;99.90;;;;;;5027399;28;20049;-64
2023/10/28 03:11:25;;;;;;;12.25;8.07;;;10.00;99.90;;;;;;5035768;28;20084;-64
2023/10/28 03:13:50;;;;;;;14.40;8.40;;;10.00;99.90;;;;;;5021903;28;20529;-63
2023/10/28 03:16:16;;;;;;;13.00;8.15;;;10.00;99.90;;;;;;5029013;28;20037;-63
2023/10/28 03:18:42;;;;;;;13.63;9.27;;;10.10;99.90;;;;;;5047194;28;20452;-64
2023/10/28 03:21:07;;;;;;;13.45;8.30;;;10.00;99.90;;;;;;5047886;28;20041;-63
2023/10/28 03:23:33;;;;;;;12.82;8.82;;;10.10;99.90;;;;;;5046543;28;20419;-64
2023/10/28 03:25:59;;;;;;;18.15;9.40;;;10.00;99.90;;;;;;5043000;28;20068;-63
2023/10/28 03:28:25;;;;;;;13.25;9.20;;;10.00;99.90;;;;;;5047601;28;20055;-64
2023/10/28 03:30:50;;;;;;;13.52;9.18;;;10.10;99.90;;;;;;5046477;28;20055;-64
2023/10/28 03:33:16;;;;;;;16.30;9.55;;;10.00;99.90;;;;;;5046726;28;20541;-64
2023/10/28 03:35:42;;;;;;;18.08;10.20;;;10.00;99.90;;;;;;5027099;28;20148;-63
2023/10/28 03:38:09;;;;;;;14.45;9.55;;;10.10;99.90;;;;;;5015055;28;20527;-64
2023/10/28 03:40:37;;;;;;;14.10;9.65;;;10.10;99.90;;;;;;5046756;28;20041;-64
2023/10/28 03:43:03;;;;;;;17.55;9.93;;;10.00;99.90;;;;;;5047565;28;20124;-64
2023/10/28 03:45:29;;;;;;;19.13;10.30;;;10.10;99.90;;;;;;5039608;28;20128;-64
2023/10/28 03:47:55;;;;;;;14.98;9.82;;;10.10;99.90;;;;;;5040831;28;20052;-64
2023/10/28 03:50:20;;;;;;;17.67;11.20;;;10.00;99.90;;;;;;5046855;28;20562;-64
2023/10/28 03:52:46;;;;;;;18.52;10.48;;;10.10;99.90;;;;;;5046434;28;20057;-64
2023/10/28 03:55:12;;;;;;;16.15;10.38;;;10.10;99.90;;;;;;5043771;28;20046;-64
2023/10/28 03:57:37;;;;;;;17.05;10.38;;;10.10;99.90;;;;;;5046268;28;20053;-64
2023/10/28 04:00:04;;;;;;;19.55;11.02;;;10.10;99.90;;;;;;5047005;28;20049;-64
2023/10/28 04:02:29;;;;;;;19.77;10.13;;;10.10;99.90;;;;;;5039924;28;20048;-64
2023/10/28 04:04:56;;;;;;;22.13;11.63;;;10.10;99.90;;;;;;5029029;28;20071;-63
2023/10/28 04:07:22;;;;;;;22.55;10.52;;;10.10;99.90;;;;;;5025698;28;20050;-63
2023/10/28 04:09:47;;;;;;;16.17;11.55;;;10.10;99.90;;;;;;5030601;28;20379;-64
2023/10/28 04:12:13;;;;;;;17.95;11.32;;;10.10;99.90;;;;;;5040561;28;20060;-64
2023/10/28 04:14:40;;;;;;;15.45;11.15;;;10.10;99.90;;;;;;5045882;28;20037;-64
2023/10/28 04:17:05;;;;;;;18.60;11.38;;;10.10;99.90;;;;;;5045851;28;20052;-64
2023/10/28 04:19:31;;;;;;;20.08;12.02;;;10.20;99.90;;;;;;5045845;28;20037;-64
2023/10/28 04:21:57;;;;;;;20.50;11.65;;;10.10;99.90;;;;;;5046983;28;20045;-63
2023/10/28 04:24:26;;;;;;;19.73;11.02;;;10.10;99.90;;;;;;5043944;28;20037;-63
2023/10/28 04:26:52;;;;;;;20.13;11.27;;;10.10;99.90;;;;;;5011636;28;20033;-63
2023/10/28 04:29:18;;;;;;;16.83;10.93;;;10.10;99.90;;;;;;5041110;28;20045;-64
2023/10/28 04:31:44;;;;;;;23.98;10.80;;;10.10;99.90;;;;;;5020020;28;20048;-64
2023/10/28 04:34:09;;;;;;;19.13;11.35;;;10.10;99.90;;;;;;5039715;28;20041;-63
2023/10/28 04:36:35;;;;;;;20.77;11.18;;;10.10;99.90;;;;;;5024283;28;20045;-64
2023/10/28 04:39:01;;;;;;;14.95;9.95;;;10.10;99.90;;;;;;5038196;28;20044;-63
2023/10/28 04:41:27;;;;;;;16.55;10.10;;;10.10;99.90;;;;;;5045506;28;20045;-63
2023/10/28 04:43:53;;;;;;;16.85;9.77;;;10.10;99.90;;;;;;5046883;28;20364;-63
2023/10/28 04:46:18;;;;;;;16.90;9.10;;;10.10;99.90;;;;;;5045595;28;20459;-64
2023/10/28 04:48:46;;;;;;;16.23;10.38;;;10.10;99.90;;;;;;5035845;28;20048;-63
2023/10/28 04:51:15;;;;;;;15.80;9.90;;;10.10;99.90;;;;;;5046939;28;20049;-64
2023/10/28 04:53:41;;;;;;;16.77;10.47;;;10.10;99.90;;;;;;5045655;28;20074;-63
2023/10/28 04:56:08;;;;;;;19.42;9.57;;;10.00;99.90;;;;;;5043479;28;20049;-63
2023/10/28 04:58:34;;;;;;;16.77;10.57;;;10.00;99.90;;;;;;5032120;28;20475;-63
2023/10/28 05:01:00;;;;;;;19.27;11.07;;;10.10;99.90;;;;;;5018235;28;20060;-64
2023/10/28 05:03:26;;;;;;;22.30;10.93;;;10.10;99.90;;;;;;5023867;28;20088;-63
2023/10/28 05:05:52;;;;;;;21.98;10.07;;;10.10;99.90;;;;;;5045870;28;20048;-63
2023/10/28 05:08:17;;;;;;;22.75;10.13;;;10.00;99.90;;;;;;5027701;28;20104;-63
2023/10/28 05:10:43;;;;;;;14.68;9.73;;;10.10;99.90;;;;;;5031379;28;20038;-64
2023/10/28 05:13:12;;;;;;;19.83;10.07;;;10.00;99.90;;;;;;5017785;28;20053;-63
2023/10/28 05:15:38;;;;;;;16.60;9.25;;;10.00;99.90;;;;;;5033126;28;20907;-63
2023/10/28 05:18:04;;;;;;;16.55;10.35;;;10.10;99.90;;;;;;5046786;28;20037;-64
2023/10/28 05:20:33;;;;;;;22.38;9.95;;;10.00;99.90;;;;;;5023445;28;20044;-63
2023/10/28 05:22:59;;;;;;;24.23;9.48;;;10.10;99.90;;;;;;5032653;28;20486;-63
2023/10/28 05:25:25;;;;;;;23.60;9.95;;;10.10;99.90;;;;;;5023949;28;20491;-63
2023/10/28 05:27:51;;;;;;;17.95;10.65;;;10.10;99.90;;;;;;5049118;28;20052;-63
2023/10/28 05:30:16;;;;;;;22.92;10.57;;;10.10;99.90;;;;;;5050263;28;20036;-63
2023/10/28 05:32:42;;;;;;;23.25;9.77;;;10.00;99.90;;;;;;5045624;28;20473;-64
2023/10/28 05:35:10;;;;;;;21.67;9.80;;;10.00;99.90;;;;;;5038808;28;20124;-63
2023/10/28 05:37:37;;;;;;;15.88;9.05;;;10.00;99.90;;;;;;5000569;28;20045;-63
2023/10/28 05:40:03;;;;;;;15.52;9.40;;;10.00;99.90;;;;;;5028694;28;20042;-63
2023/10/28 05:42:29;;;;;;;20.80;9.63;;;10.10;99.90;;;;;;5030107;28;20129;-63
2023/10/28 05:44:54;;;;;;;29.15;10.43;;;10.10;99.90;;;;;;5027451;28;20492;-63
2023/10/28 05:47:20;;;;;;;19.45;9.35;;;10.00;99.90;;;;;;5037306;28;20504;-63
2023/10/28 05:49:46;;;;;;;24.30;10.10;;;10.00;99.90;;;;;;5040989;28;20084;-63
2023/10/28 05:52:12;;;;;;;21.90;9.85;;;10.00;99.90;;;;;;5012303;28;20045;-63
2023/10/28 05:54:39;;;;;;;23.27;9.13;;;10.00;99.90;;;;;;5019153;28;20116;-63
2023/10/28 05:57:05;;;;;;;22.08;10.27;;;10.00;99.90;;;;;;5031407;28;20094;-63
2023/10/28 05:59:31;;;;;;;24.30;10.95;;;10.00;99.90;;;;;;5028523;28;20050;-64
2023/10/28 06:01:56;;;;;;;24.88;10.07;;;10.00;99.90;;;;;;5032829;28;20091;-63
2023/10/28 06:04:22;;;;;;;22.55;9.65;;;10.00;99.90;;;;;;5013280;28;20046;-63
2023/10/28 06:06:48;;;;;;;14.82;9.43;;;10.10;99.90;;;;;;5033704;28;20044;-63
2023/10/28 06:09:15;;;;;;;17.33;9.30;;;10.00;99.90;;;;;;5029269;28;20052;-63
2023/10/28 06:11:41;;;;;;;20.52;8.98;;;10.00;99.90;;;;;;5037625;28;20448;-63
2023/10/28 06:14:07;;;;;;;15.20;8.73;;;10.00;99.90;;;;;;5046876;28;20131;-63
2023/10/28 06:16:34;;;;;;;19.90;8.43;;;10.00;99.90;;;;;;5024175;28;20072;-63
2023/10/28 06:19:00;;;;;;;19.88;9.05;;;10.00;99.90;;;;;;5047206;28;20056;-63
2023/10/28 06:21:27;;;;;;;21.63;8.82;;;10.00;99.90;;;;;;5043166;28;20052;-63
2023/10/28 06:23:53;;;;;;;12.82;7.85;;;10.00;99.90;;;;;;5029879;28;20049;-63
2023/10/28 06:26:19;;;;;;;21.13;8.88;;;10.10;99.90;;;;;;5045745;28;20055;-63
2023/10/28 06:28:45;;;;;;;15.93;7.60;;;10.00;99.90;;;;;;5029481;28;20289;-63
2023/10/28 06:31:11;;;;;;;22.23;9.57;;;10.00;99.90;;;;;;5047258;28;20082;-63
2023/10/28 06:33:36;;;;;;;19.13;8.43;;;10.00;99.90;;;;;;5043612;28;20155;-63
2023/10/28 06:36:03;;;;;;;14.10;7.38;;;10.10;99.90;;;;;;5042065;28;20555;-63
2023/10/28 06:38:30;;;;;;;19.42;9.13;;;10.10;99.90;;;;;;5048511;28;20056;-63
2023/10/28 06:40:57;;;;;;;24.65;8.75;;;10.00;99.90;;;;;;5047604;28;20041;-63
2023/10/28 06:43:23;;;;;;;29.65;9.68;;;10.10;99.90;;;;;;5030607;28;20544;-63
2023/10/28 06:45:49;;;;;;;22.42;9.13;;;10.00;99.90;;;;;;5040509;28;20044;-63
2023/10/28 06:48:18;;;;;;;19.58;8.85;;;10.10;99.90;;;;;;5046325;28;20484;-63
2023/10/28 06:50:45;;;;;;;22.80;9.07;;;10.10;99.90;;;;;;5038547;28;20197;-63
2023/10/28 06:53:10;;;;;;;23.13;9.45;;;10.10;99.90;;;;;;5044044;28;20066;-63
2023/10/28 06:55:36;;;;;;;27.95;9.82;;;10.10;99.90;;;;;;5031384;28;20054;-63
2023/10/28 06:58:02;;;;;;;24.23;8.88;;;10.00;99.90;;;;;;5040702;28;20190;-64
2023/10/28 07:00:28;;;;;;;17.50;8.25;;;10.10;99.90;;;;;;5025050;28;20045;-63
2023/10/28 07:02:55;;;;;;;16.73;9.13;;;10.10;99.90;;;;;;5028815;28;20403;-63
2023/10/28 07:05:21;;;;;;;23.67;8.27;;;10.10;99.90;;;;;;5010913;28;20071;-63
2023/10/28 07:07:48;;;;;;;21.88;8.35;;;10.10;99.90;;;;;;5008658;28;20049;-63
2023/10/28 07:10:16;;;;;;;16.88;7.90;;;10.10;99.90;;;;;;5011303;28;20049;-64
2023/10/28 07:12:42;;;;;;;26.10;8.20;;;10.20;99.90;;;;;;5029016;28;20037;-63
2023/10/28 07:15:11;;;;;;;18.60;7.63;;;10.10;99.90;;;;;;5027706;28;20418;-63
2023/10/28 07:17:39;;;;;;;30.57;9.43;;;10.20;99.90;;;;;;5015215;28;20044;-64
2023/10/28 07:20:07;;;;;;;26.08;9.25;;;10.20;99.90;;;;;;5033751;28;20038;-63
2023/10/28 07:22:33;;;;;;;14.65;8.15;;;10.20;99.90;;;;;;5027737;28;20462;-63
2023/10/28 07:24:59;;;;;;;21.25;8.38;;;10.20;99.90;;;;;;5026633;28;20033;-63
2023/10/28 07:27:24;;;;;;;26.13;8.15;;;10.20;99.90;;;;;;5014193;28;20056;-63
2023/10/28 07:29:50;;;;;;;22.88;8.07;;;10.30;99.90;;;;;;5030279;28;20876;-63
2023/10/28 07:32:16;;;;;;;16.20;7.22;;;10.30;99.90;;;;;;5034100;28;20049;-63
2023/10/28 07:34:42;;;;;;;24.10;7.63;;;10.30;99.90;;;;;;5026714;28;20045;-63
2023/10/28 07:37:08;;;;;;;17.00;8.00;;;10.30;99.90;;;;;;5014577;28;20045;-63
2023/10/28 07:39:34;;;;;;;16.48;7.70;;;10.40;99.90;;;;;;5036481;28;20041;-63
2023/10/28 07:42:00;;;;;;;15.77;7.47;;;10.40;99.90;;;;;;5038186;28;20056;-63
2023/10/28 07:44:26;;;;;;;14.35;6.93;;;10.40;99.90;;;;;;5037481;28;20503;-63
2023/10/28 07:46:52;;;;;;;22.30;7.95;;;10.40;99.90;;;;;;5032886;28;20064;-63
2023/10/28 07:49:18;;;;;;;19.38;7.85;;;10.30;99.90;;;;;;5023922;28;20064;-63
2023/10/28 07:51:44;;;;;;;16.50;6.30;;;10.30;99.90;;;;;;5040195;28;20041;-63
2023/10/28 07:54:13;;;;;;;12.13;6.88;;;10.40;99.90;;;;;;5036859;28;20098;-63
2023/10/28 07:56:40;;;;;;;9.52;5.82;;;10.30;99.90;;;;;;5028664;28;20088;-63
2023/10/28 07:59:07;;;;;;;13.77;5.60;;;10.40;99.90;;;;;;5008851;28;20081;-63
2023/10/28 08:01:33;;;;;;;16.80;5.22;;;10.40;99.90;;;;;;4993514;28;20095;-63
2023/10/28 08:03:58;;;;;;;8.10;5.55;;;10.50;99.90;;;;;;5012912;28;20034;-63
2023/10/28 08:06:25;;;;;;;11.43;5.22;;;10.40;99.90;;;;;;5041160;28;20040;-63
2023/10/28 08:08:55;;;;;;;9.73;4.85;;;10.40;99.90;;;;;;5040039;28;20033;-63
2023/10/28 08:11:24;;;;;;;13.73;4.57;;;10.50;99.90;;;;;;5036882;28;20049;-63
2023/10/28 08:13:50;;;;;;;13.13;4.57;;;10.40;99.90;;;;;;5010168;28;20552;-63
2023/10/28 08:16:20;;;;;;;12.20;4.32;;;10.50;99.90;;;;;;5007359;28;20554;-64
2023/10/28 08:18:47;;;;;;;10.25;4.18;;;10.40;99.90;;;;;;5004770;28;20061;-63
2023/10/28 08:21:16;;;;;;;11.55;3.95;;;10.40;99.90;;;;;;5030787;28;20132;-63
2023/10/28 08:23:43;;;;;;;6.72;4.10;;;10.50;99.90;;;;;;5034357;28;20037;-62
2023/10/28 08:26:10;;;;;;;5.15;3.38;;;10.40;99.90;;;;;;5035471;28;20041;-63
2023/10/28 08:28:39;;;;;;;5.55;2.92;;;10.50;99.90;;;;;;5008611;28;20053;-63
2023/10/28 08:31:11;;;;;;;9.32;3.30;;;10.50;99.90;;;;;;5027422;28;20068;-63
2023/10/28 08:33:40;;;;;;;4.88;3.25;;;10.50;99.90;;;;;;5009920;28;20049;-63
2023/10/28 08:36:07;;;;;;;6.78;3.40;;;10.60;99.90;;;;;;5022866;28;20053;-63
2023/10/28 08:38:34;;;;;;;6.57;3.47;;;10.60;99.90;;;;;;5020943;28;20073;-63
2023/10/28 08:41:01;;;;;;;8.27;3.17;;;10.60;99.90;;;;;;5040894;28;20049;-63
2023/10/28 08:43:27;;;;;;;7.97;3.42;;;10.60;99.90;;;;;;5025421;28;20435;-63
2023/10/28 08:45:56;;;;;;;8.32;2.90;;;10.70;99.90;;;;;;5031433;28;20051;-63
2023/10/28 08:48:22;;;;;;;3.28;2.55;;;10.70;99.90;;;;;;5021611;28;20061;-65
2023/10/28 08:51:02;;;;;;;11.02;4.00;;;10.70;99.90;;;;;;5027217;28;20128;-63
2023/10/28 08:53:30;;;;;;;9.23;3.53;;;10.70;99.90;;;;;;5034962;28;20041;-63
2023/10/28 08:55:58;;;;;;;6.30;3.00;;;10.80;99.90;;;;;;5041989;28;20147;-64
2023/10/28 08:58:25;;;;;;;4.30;3.10;;;10.90;99.90;;;;;;5041659;28;20045;-64
2023/10/28 09:00:51;;;;;;;7.78;2.90;;;10.90;99.90;;;;;;5029801;28;20114;-64
2023/10/28 09:03:23;;;;;;;7.05;3.25;;;10.90;99.90;;;;;;5016366;28;20044;-63
2023/10/28 09:05:52;;;;;;;7.93;3.20;;;10.90;99.90;;;;;;5036451;28;20034;-63
2023/10/28 09:08:20;;;;;;;3.17;2.87;;;11.00;99.90;;;;;;5032850;28;20507;-63
2023/10/28 09:10:45;;;;;;;8.15;3.03;;;11.00;99.90;;;;;;5030979;28;20087;-64
2023/10/28 09:13:15;;;;;;;6.03;2.97;;;11.00;99.90;;;;;;5028952;28;20076;-64
2023/10/28 09:15:41;;;;;;;6.35;2.58;;;11.00;99.90;;;;;;5028610;28;20420;-64
2023/10/28 09:18:08;;;;;;;7.70;3.10;;;11.00;99.90;;;;;;5030372;28;20404;-64
2023/10/28 09:20:37;;;;;;;7.05;2.85;;;10.80;99.90;;;;;;4994866;28;20136;-63
2023/10/28 09:23:03;;;;;;;6.78;2.67;;;10.80;99.90;;;;;;5012464;28;20038;-64
2023/10/28 09:25:30;;;;;;;5.65;2.53;;;10.90;99.90;;;;;;5028671;28;20038;-63
2023/10/28 09:27:56;;;;;;;2.92;2.15;;;10.90;99.90;;;;;;5012566;28;20088;-63
2023/10/28 09:30:21;;;;;;;4.65;2.72;;;10.90;99.90;;;;;;4985479;28;20077;-63
2023/10/28 09:32:47;;;;;;;4.70;2.33;;;10.90;99.90;;;;;;5008670;28;20049;-63
2023/10/28 09:35:13;;;;;;;7.35;2.30;;;10.90;99.90;;;;;;5028652;28;20042;-63
2023/10/28 09:37:40;;;;;;;6.97;2.75;;;11.00;99.90;;;;;;5027184;28;20052;-64
2023/10/28 09:40:08;;;;;;;4.55;2.47;;;11.00;99.90;;;;;;5032439;28;20054;-63
2023/10/28 09:42:36;;;;;;;8.68;2.70;;;11.00;99.90;;;;;;5040631;28;20033;-63
2023/10/28 09:45:06;;;;;;;6.22;3.00;;;11.00;99.90;;;;;;5030478;28;20533;-63
2023/10/28 09:47:43;;;;;;;4.28;2.90;;;11.00;99.90;;;;;;5010479;28;20058;-63
2023/10/28 09:50:13;;;;;;;8.27;2.97;;;11.00;99.90;;;;;;5031063;28;20121;-63
2023/10/28 09:52:43;;;;;;;7.35;2.55;;;11.10;99.90;;;;;;5029161;28;20503;-63
2023/10/28 09:55:13;;;;;;;6.65;2.80;;;11.20;99.90;;;;;;5028007;28;20399;-63
2023/10/28 09:57:40;;;;;;;10.20;2.75;;;11.30;99.90;;;;;;5029439;28;20042;-63
2023/10/28 10:00:17;;;;;;;9.25;2.58;;;11.40;99.90;;;;;;5028099;28;20616;-63
2023/10/28 10:03:08;;;;;;;2.92;2.50;;;11.50;99.90;;;;;;5029010;28;20049;-63
2023/10/28 10:05:41;;;;;;;4.40;2.25;;;11.60;99.90;;;;;;5034542;28;20088;-63
2023/10/28 10:08:22;;;;;;;3.60;1.88;;;11.80;99.90;;;;;;5034927;28;20053;-64
2023/10/28 10:10:49;;;;;;;10.05;2.53;;;11.70;99.90;;;;;;5031888;28;20044;-63
2023/10/28 10:13:15;;;;;;;8.43;2.35;;;11.70;99.90;;;;;;5046025;28;20630;-63
2023/10/28 10:15:54;;;;;;;3.20;1.90;;;11.60;99.90;;;;;;5044234;28;20087;-63
2023/10/28 10:18:46;;;;;;;6.45;2.30;;;11.60;99.90;;;;;;5045990;28;20041;-63
2023/10/28 10:21:12;;;;;;;4.25;1.75;;;11.50;99.90;;;;;;5035147;28;20038;-64
2023/10/28 10:23:49;;;;;;;4.03;2.28;;;11.50;99.90;;;;;;5021310;28;20052;-64
2023/10/28 10:26:26;;;;;;;6.15;2.17;;;11.50;99.90;;;;;;5029432;28;20048;-63
2023/10/28 10:28:58;;;;;;;4.50;2.17;;;11.50;99.90;;;;;;5048914;28;20052;-63
2023/10/28 10:31:35;;;;;;;4.78;1.92;;;11.50;99.90;;;;;;5045494;28;20505;-63
2023/10/28 10:34:08;;;;;;;5.57;2.20;;;11.40;99.90;;;;;;5047462;28;20041;-63
2023/10/28 10:36:40;;;;;;;3.40;1.75;;;11.50;99.90;;;;;;5043733;28;20037;-63
2023/10/28 10:39:14;;;;;;;2.25;1.88;;;11.50;99.90;;;;;;5029078;28;20442;-63
2023/10/28 10:41:41;;;;;;;4.50;1.58;;;11.50;99.90;;;;;;5032257;28;20041;-63
2023/10/28 10:44:23;;;;;;;8.18;2.10;;;11.60;99.90;;;;;;5032050;28;20053;-63
2023/10/28 10:46:49;;;;;;;8.38;2.28;;;11.60;99.90;;;;;;5032735;28;20087;-63
2023/10/28 10:49:15;;;;;;;4.35;1.60;;;11.60;99.90;;;;;;5009323;28;20057;-63
2023/10/28 10:51:42;;;;;;;2.35;1.65;;;11.60;99.90;;;;;;5009138;28;20053;-63
2023/10/28 10:54:08;;;;;;;8.45;2.30;;;11.50;99.90;;;;;;5009359;28;20083;-63
2023/10/28 10:56:33;;;;;;;4.47;1.90;;;11.60;99.90;;;;;;5026962;28;20037;-63
2023/10/28 10:58:59;;;;;;;3.83;1.83;;;11.60;99.90;;;;;;5010565;28;20041;-63
2023/10/28 11:01:25;;;;;;;4.18;1.83;;;11.60;99.90;;;;;;5026089;28;20037;-63
2023/10/28 11:03:51;;;;;;;6.78;2.28;;;11.50;99.90;;;;;;5030955;28;20049;-63
2023/10/28 11:06:17;;;;;;;5.32;1.83;;;11.60;99.90;;;;;;5027344;28;20049;-63
2023/10/28 11:08:43;;;;;;;5.47;1.63;;;11.60;99.90;;;;;;5027203;28;20526;-63
2023/10/28 11:11:13;;;;;;;3.05;1.92;;;11.60;99.90;;;;;;5014888;28;20048;-63
2023/10/28 11:13:39;;;;;;;3.63;1.60;;;11.60;99.90;;;;;;5019510;28;20128;-63
2023/10/28 11:16:05;;;;;;;6.15;1.65;;;11.60;99.90;;;;;;5026410;28;20945;-63
2023/10/28 11:18:32;;;;;;;6.32;1.60;;;11.70;99.90;;;;;;5045260;28;20053;-63
2023/10/28 11:20:57;;;;;;;3.38;1.33;;;11.70;99.90;;;;;;5040199;28;20599;-63
2023/10/28 11:23:23;;;;;;;5.72;1.85;;;11.70;99.90;;;;;;5042122;28;20179;-63
2023/10/28 11:25:49;;;;;;;3.38;1.60;;;11.80;99.90;;;;;;5032726;28;20033;-62
2023/10/28 11:28:14;;;;;;;5.05;2.10;;;11.80;99.90;;;;;;5027394;28;20061;-62
2023/10/28 11:30:50;;;;;;;6.28;1.83;;;11.90;99.90;;;;;;5008767;28;20045;-63
2023/10/28 11:33:15;;;;;;;3.35;1.80;;;11.90;99.90;;;;;;5004287;28;20084;-63
2023/10/28 11:35:41;;;;;;;1.77;1.67;;;12.00;99.90;;;;;;5033602;28;20076;-63
2023/10/28 11:38:10;;;;;;;6.20;1.98;;;12.00;99.90;;;;;;5039581;28;20045;-63
2023/10/28 11:40:36;;;;;;;3.97;2.00;;;12.00;99.90;;;;;;5046737;28;20049;-63
2023/10/28 11:43:05;;;;;;;7.63;1.48;;;12.10;99.90;;;;;;5030251;28;20064;-63
2023/10/28 11:45:31;;;;;;;8.27;2.13;;;12.00;99.90;;;;;;4994849;28;20057;-63
2023/10/28 11:47:56;;;;;;;6.07;1.73;;;12.10;99.90;;;;;;5040501;28;20060;-63
2023/10/28 11:50:22;;;;;;;2.65;1.98;;;12.00;99.90;;;;;;5010301;28;20423;-63
2023/10/28 11:52:48;;;;;;;4.15;1.85;;;12.00;99.90;;;;;;5007683;28;20127;-63
2023/10/28 11:55:14;;;;;;;2.20;1.77;;;11.90;99.90;;;;;;5026731;28;20171;-63
2023/10/28 11:57:39;;;;;;;2.80;2.03;;;12.00;99.90;;;;;;5033791;28;20037;-63
2023/10/28 12:00:06;;;;;;;6.55;2.13;;;12.00;99.90;;;;;;5012740;28;20474;-63
2023/10/28 12:02:31;;;;;;;2.97;1.63;;;12.10;99.90;;;;;;5025684;28;20682;-63
2023/10/28 12:04:57;;;;;;;4.38;1.80;;;12.10;99.90;;;;;;4998093;28;20049;-63
2023/10/28 12:07:23;;;;;;;6.00;2.08;;;12.20;99.90;;;;;;5010053;28;20048;-63
2023/10/28 12:09:49;;;;;;;4.90;1.95;;;12.30;99.90;;;;;;5026402;28;20048;-63
2023/10/28 12:12:14;;;;;;;1.85;1.70;;;12.30;99.90;;;;;;5031927;28;20045;-63
2023/10/28 12:14:40;;;;;;;3.95;2.00;;;12.40;99.90;;;;;;5021174;28;20042;-63
2023/10/28 12:17:06;;;;;;;9.68;2.50;;;12.30;99.90;;;;;;5027948;28;20038;-62
2023/10/28 12:19:33;;;;;;;8.65;2.10;;;12.40;99.90;;;;;;5026494;28;20108;-62
2023/10/28 12:21:58;;;;;;;4.03;1.83;;;12.40;99.90;;;;;;5026078;28;20045;-63
2023/10/28 12:24:24;;;;;;;4.82;1.80;;;12.50;99.90;;;;;;5026499;28;20051;-63
2023/10/28 12:26:50;;;;;;;4.97;2.28;;;12.50;99.90;;;;;;5008741;28;20033;-63
2023/10/28 12:29:16;;;;;;;2.92;2.03;;;12.50;99.90;;;;;;5032563;28;20053;-63
2023/10/28 12:31:42;;;;;;;6.63;1.85;;;12.50;99.90;;;;;;5025766;28;20072;-63
2023/10/28 12:34:07;;;;;;;6.80;2.25;;;12.60;99.90;;;;;;5028939;28;20081;-63
2023/10/28 12:36:33;;;;;;;15.07;2.60;;;12.70;99.90;;;;;;5030148;28;20056;-63
2023/10/28 12:38:59;;;;;;;5.72;2.53;;;12.70;99.90;;;;;;5018685;28;20032;-62
2023/10/28 12:41:25;;;;;;;10.25;2.10;;;12.70;99.90;;;;;;5030196;28;20033;-63